Time;durP1;ratioP1;P1;durP2;ratioP2;P2;SDS_P1;SDS_P2;PMS_P1;PMS_P2;Temp;Humidity;BMP_temperature;BMP_pressure;BME280_temperature;BME280_humidity;BME280_pressure;Samples;Min_cycle;Max_cycle;Signal;HPM_P1;HPM_P2
2023/05/30 00:00:45;;;;;;;3.70;0.90;;;;;;;;;;5084564;28;20205;-62
2023/05/30 00:03:12;;;;;;;0.82;0.60;;;;;;;;;;5077483;28;20715;-60
2023/05/30 00:05:39;;;;;;;2.67;0.80;;;;;;;;;;5068320;28;20645;-60
2023/05/30 00:08:06;;;;;;;1.65;0.82;;;;;;;;;;5068373;28;20210;-60
2023/05/30 00:10:33;;;;;;;1.73;0.70;;;;;;;;;;5085960;28;20199;-62
2023/05/30 00:13:03;;;;;;;0.80;0.80;;;;;;;;;;5088797;28;20209;-60
2023/05/30 00:15:31;;;;;;;0.28;0.28;;;;;;;;;;5084827;28;20203;-60
2023/05/30 00:18:00;;;;;;;0.45;0.40;;;;;;;;;;5073593;28;20214;-59
2023/05/30 00:20:29;;;;;;;4.82;0.90;;;;;;;;;;5080082;28;20222;-60
2023/05/30 00:22:57;;;;;;;0.90;0.90;;;;;;;;;;5085944;28;20235;-60
2023/05/30 00:25:24;;;;;;;6.75;1.13;;;;;;;;;;5074985;28;20219;-60
2023/05/30 00:27:51;;;;;;;3.03;0.82;;;;;;;;;;5076796;28;20648;-60
2023/05/30 00:30:19;;;;;;;3.05;0.80;;;;;;;;;;5072099;28;20681;-59
2023/05/30 00:32:46;;;;;;;1.83;1.00;;;;;;;;;;5086565;28;20234;-59
2023/05/30 00:35:15;;;;;;;1.77;0.88;;;;;;;;;;5080448;28;20592;-59
2023/05/30 00:37:42;;;;;;;1.75;0.50;;;;;;;;;;5082501;28;20255;-60
2023/05/30 00:40:09;;;;;;;6.72;0.80;;;;;;;;;;5071165;28;20583;-60
2023/05/30 00:42:36;;;;;;;1.90;0.90;;;;;;;;;;5079449;28;20262;-60
2023/05/30 00:45:03;;;;;;;0.45;0.45;;;;;;;;;;5077927;28;20237;-60
2023/05/30 00:47:30;;;;;;;4.03;1.25;;;;;;;;;;5069278;28;20202;-60
2023/05/30 00:49:58;;;;;;;3.20;1.08;;;;;;;;;;5087236;28;20904;-60
2023/05/30 00:52:26;;;;;;;0.57;0.38;;;;;;;;;;5087368;28;20271;-60
2023/05/30 00:54:54;;;;;;;0.60;0.60;;;;;;;;;;5084760;28;20229;-60
2023/05/30 00:57:21;;;;;;;1.52;0.90;;;;;;;;;;5077280;28;20289;-60
2023/05/30 00:59:49;;;;;;;1.45;0.30;;;;;;;;;;5081854;28;20232;-60
2023/05/30 01:02:17;;;;;;;3.58;1.10;;;;;;;;;;5072050;28;20211;-60
2023/05/30 01:04:44;;;;;;;0.65;0.52;;;;;;;;;;5068046;28;20290;-60
2023/05/30 01:07:12;;;;;;;0.47;0.40;;;;;;;;;;5079639;28;20213;-60
2023/05/30 01:09:41;;;;;;;1.48;0.80;;;;;;;;;;5074797;28;20924;-60
2023/05/30 01:12:13;;;;;;;5.15;0.60;;;;;;;;;;5087544;28;20263;-61
2023/05/30 01:14:44;;;;;;;2.30;0.93;;;;;;;;;;5085954;28;20202;-59
2023/05/30 01:17:16;;;;;;;0.75;0.68;;;;;;;;;;5077961;28;20199;-60
2023/05/30 01:19:56;;;;;;;1.08;0.75;;;;;;;;;;5067886;28;20217;-60
2023/05/30 01:22:32;;;;;;;2.08;0.95;;;;;;;;;;5068243;28;20221;-60
2023/05/30 01:25:07;;;;;;;2.63;1.52;;;;;;;;;;5081730;28;20882;-60
2023/05/30 01:27:37;;;;;;;2.15;0.57;;;;;;;;;;5081786;28;20226;-60
2023/05/30 01:30:08;;;;;;;0.80;0.70;;;;;;;;;;5078178;28;20574;-60
2023/05/30 01:32:35;;;;;;;0.93;0.90;;;;;;;;;;5086651;28;20210;-60
2023/05/30 01:35:02;;;;;;;1.15;0.82;;;;;;;;;;5080455;28;20207;-60
2023/05/30 01:37:29;;;;;;;3.08;0.77;;;;;;;;;;5067945;28;20641;-60
2023/05/30 01:39:56;;;;;;;2.47;0.98;;;;;;;;;;5079732;28;20206;-60
2023/05/30 01:42:24;;;;;;;1.70;1.02;;;;;;;;;;5086641;28;20245;-60
2023/05/30 01:44:56;;;;;;;1.90;0.73;;;;;;;;;;5074289;28;20207;-60
2023/05/30 01:47:28;;;;;;;2.47;0.88;;;;;;;;;;5069714;28;20218;-60
2023/05/30 01:49:59;;;;;;;6.75;0.90;;;;;;;;;;5080368;28;20989;-60
2023/05/30 01:52:31;;;;;;;5.35;1.25;;;;;;;;;;5085635;28;20207;-60
2023/05/30 01:55:02;;;;;;;2.30;0.52;;;;;;;;;;5078735;28;20214;-61
2023/05/30 01:57:31;;;;;;;0.68;0.68;;;;;;;;;;5069009;28;20198;-61
2023/05/30 01:59:59;;;;;;;0.88;0.88;;;;;;;;;;5078260;28;20669;-60
2023/05/30 02:02:27;;;;;;;0.70;0.70;;;;;;;;;;5067956;28;20660;-60
2023/05/30 02:04:54;;;;;;;4.03;1.13;;;;;;;;;;5067603;28;20198;-61
2023/05/30 02:07:22;;;;;;;1.50;1.00;;;;;;;;;;5071487;28;20194;-60
2023/05/30 02:09:49;;;;;;;3.38;0.88;;;;;;;;;;5087239;28;20198;-60
2023/05/30 02:12:16;;;;;;;0.87;0.87;;;;;;;;;;5084545;28;20214;-61
2023/05/30 02:14:43;;;;;;;4.57;1.30;;;;;;;;;;5075980;28;20259;-60
2023/05/30 02:17:11;;;;;;;1.95;0.70;;;;;;;;;;5082565;28;20664;-60
2023/05/30 02:19:39;;;;;;;1.07;0.47;;;;;;;;;;5074623;28;20214;-60
2023/05/30 02:22:07;;;;;;;1.55;0.60;;;;;;;;;;5084757;28;20202;-60
2023/05/30 02:24:34;;;;;;;1.80;0.80;;;;;;;;;;5067180;28;20617;-60
2023/05/30 02:27:01;;;;;;;1.70;0.83;;;;;;;;;;5067639;28;20227;-61
2023/05/30 02:29:28;;;;;;;1.87;0.90;;;;;;;;;;5068498;28;20293;-60
2023/05/30 02:31:55;;;;;;;5.00;0.87;;;;;;;;;;5068420;28;20210;-60
2023/05/30 02:34:22;;;;;;;1.97;0.93;;;;;;;;;;5075349;28;20263;-61
2023/05/30 02:36:50;;;;;;;2.83;0.73;;;;;;;;;;5070941;28;20634;-61
2023/05/30 02:39:17;;;;;;;1.30;0.90;;;;;;;;;;5076632;28;20211;-60
2023/05/30 02:41:44;;;;;;;0.67;0.33;;;;;;;;;;5077760;28;20238;-60
2023/05/30 02:44:11;;;;;;;1.03;0.60;;;;;;;;;;5077096;28;20602;-60
2023/05/30 02:46:38;;;;;;;5.90;0.90;;;;;;;;;;5085590;28;20260;-60
2023/05/30 02:49:05;;;;;;;0.70;0.43;;;;;;;;;;5084694;28;20213;-60
2023/05/30 02:51:32;;;;;;;1.03;0.67;;;;;;;;;;5080922;28;20202;-61
2023/05/30 02:54:01;;;;;;;4.93;0.90;;;;;;;;;;5081050;28;20210;-61
2023/05/30 02:56:28;;;;;;;0.93;0.70;;;;;;;;;;5089385;28;20206;-60
2023/05/30 02:58:56;;;;;;;1.53;0.97;;;;;;;;;;5090644;28;20206;-60
2023/05/30 03:01:30;;;;;;;3.27;0.83;;;;;;;;;;5090136;28;20206;-60
2023/05/30 03:03:57;;;;;;;2.17;0.90;;;;;;;;;;5090437;28;20210;-60
2023/05/30 03:06:24;;;;;;;2.53;0.80;;;;;;;;;;5088564;28;20307;-60
2023/05/30 03:08:57;;;;;;;2.57;0.80;;;;;;;;;;5079999;28;20289;-61
2023/05/30 03:11:25;;;;;;;3.50;0.70;;;;;;;;;;5085618;28;20362;-60
2023/05/30 03:13:53;;;;;;;2.90;1.00;;;;;;;;;;5090413;28;20289;-60
2023/05/30 03:16:20;;;;;;;0.80;0.80;;;;;;;;;;5083706;28;20206;-61
2023/05/30 03:18:49;;;;;;;2.90;1.30;;;;;;;;;;5089707;28;20247;-60
2023/05/30 03:21:16;;;;;;;4.07;1.03;;;;;;;;;;5078935;28;20231;-60
2023/05/30 03:23:43;;;;;;;3.00;0.77;;;;;;;;;;5086204;28;20289;-60
2023/05/30 03:26:10;;;;;;;0.80;0.70;;;;;;;;;;5076398;28;20230;-61
2023/05/30 03:28:39;;;;;;;2.80;1.37;;;;;;;;;;5070023;28;20669;-61
2023/05/30 03:31:06;;;;;;;1.33;0.90;;;;;;;;;;5070261;28;20357;-60
2023/05/30 03:33:33;;;;;;;2.40;1.23;;;;;;;;;;5072400;28;20207;-61
2023/05/30 03:36:00;;;;;;;0.90;0.77;;;;;;;;;;5071583;28;20203;-60
2023/05/30 03:38:27;;;;;;;3.63;0.93;;;;;;;;;;5070948;28;20207;-60
2023/05/30 03:40:54;;;;;;;3.40;0.40;;;;;;;;;;5085261;28;20199;-60
2023/05/30 03:43:21;;;;;;;4.73;0.90;;;;;;;;;;5087038;28;20297;-60
2023/05/30 03:45:49;;;;;;;0.70;0.70;;;;;;;;;;5071775;28;20231;-61
2023/05/30 03:48:17;;;;;;;0.97;0.80;;;;;;;;;;5083228;28;20199;-61
2023/05/30 03:50:44;;;;;;;1.87;0.80;;;;;;;;;;5085200;28;20203;-61
2023/05/30 03:53:11;;;;;;;2.53;1.13;;;;;;;;;;5079446;28;20345;-59
2023/05/30 03:55:38;;;;;;;6.33;1.40;;;;;;;;;;5069902;28;20211;-59
2023/05/30 03:58:05;;;;;;;3.57;0.53;;;;;;;;;;5069459;28;20673;-62
2023/05/30 04:00:32;;;;;;;1.60;0.63;;;;;;;;;;5077423;28;20207;-63
2023/05/30 04:03:01;;;;;;;6.80;1.10;;;;;;;;;;5080075;28;20198;-63
2023/05/30 04:05:28;;;;;;;2.73;0.70;;;;;;;;;;5086509;28;20206;-63
2023/05/30 04:07:55;;;;;;;5.40;1.27;;;;;;;;;;5084475;28;20206;-63
2023/05/30 04:10:22;;;;;;;7.93;0.90;;;;;;;;;;5072782;28;20225;-63
2023/05/30 04:12:49;;;;;;;2.17;0.70;;;;;;;;;;5089471;28;20296;-63
2023/05/30 04:15:16;;;;;;;2.77;0.73;;;;;;;;;;5073799;28;20196;-63
2023/05/30 04:17:43;;;;;;;1.70;0.80;;;;;;;;;;5088045;28;20214;-63
2023/05/30 04:20:12;;;;;;;0.43;0.43;;;;;;;;;;5078275;28;20745;-63
2023/05/30 04:22:39;;;;;;;1.80;0.60;;;;;;;;;;5088485;28;20594;-63
2023/05/30 04:25:07;;;;;;;1.93;0.73;;;;;;;;;;5088604;28;20206;-63
2023/05/30 04:27:34;;;;;;;1.27;0.50;;;;;;;;;;5086420;28;20227;-62
2023/05/30 04:30:03;;;;;;;4.97;0.97;;;;;;;;;;5088612;28;20296;-63
2023/05/30 04:32:33;;;;;;;2.47;1.10;;;;;;;;;;5088081;28;20209;-64
2023/05/30 04:35:00;;;;;;;8.33;1.10;;;;;;;;;;5082618;28;20206;-63
2023/05/30 04:37:29;;;;;;;2.63;1.13;;;;;;;;;;5078152;28;20284;-63
2023/05/30 04:39:57;;;;;;;3.90;0.90;;;;;;;;;;5081276;28;20721;-64
2023/05/30 04:42:26;;;;;;;7.83;0.90;;;;;;;;;;5094313;28;20237;-64
2023/05/30 04:44:54;;;;;;;4.20;0.77;;;;;;;;;;5080526;28;20213;-64
2023/05/30 04:47:23;;;;;;;6.80;0.83;;;;;;;;;;5073909;28;20257;-64
2023/05/30 04:49:53;;;;;;;1.50;0.73;;;;;;;;;;5076739;28;20215;-64
2023/05/30 04:52:20;;;;;;;0.40;0.40;;;;;;;;;;5067039;28;20584;-62
2023/05/30 04:54:49;;;;;;;3.20;1.17;;;;;;;;;;5070471;28;20241;-62
2023/05/30 04:57:16;;;;;;;2.80;0.53;;;;;;;;;;5075064;28;20208;-62
2023/05/30 04:59:43;;;;;;;8.90;1.00;;;;;;;;;;5083179;28;20211;-64
2023/05/30 05:02:10;;;;;;;4.47;1.03;;;;;;;;;;5077262;28;20214;-63
2023/05/30 05:04:37;;;;;;;1.97;0.67;;;;;;;;;;5076970;28;20890;-63
2023/05/30 05:07:04;;;;;;;5.40;1.17;;;;;;;;;;5082576;28;20226;-63
2023/05/30 05:09:32;;;;;;;4.97;1.60;;;;;;;;;;5085880;28;20275;-63
2023/05/30 05:12:01;;;;;;;0.83;0.80;;;;;;;;;;5088882;28;20239;-63
2023/05/30 05:14:28;;;;;;;2.40;0.70;;;;;;;;;;5105896;28;20293;-63
2023/05/30 05:16:55;;;;;;;2.53;0.60;;;;;;;;;;5067917;28;20207;-63
2023/05/30 05:19:22;;;;;;;2.03;0.60;;;;;;;;;;5071289;28;20215;-63
2023/05/30 05:21:49;;;;;;;10.17;1.27;;;;;;;;;;5082548;28;20283;-61
2023/05/30 05:24:16;;;;;;;0.57;0.57;;;;;;;;;;5086863;28;20217;-63
2023/05/30 05:26:43;;;;;;;1.37;0.93;;;;;;;;;;5075542;28;20260;-63
2023/05/30 05:29:12;;;;;;;7.22;0.75;;;;;;;;;;5076516;28;20242;-63
2023/05/30 05:31:39;;;;;;;1.70;1.07;;;;;;;;;;5085171;28;20209;-63
2023/05/30 05:34:06;;;;;;;2.20;0.60;;;;;;;;;;5084900;28;20218;-64
2023/05/30 05:36:33;;;;;;;2.70;0.80;;;;;;;;;;5083407;28;20203;-64
2023/05/30 05:39:00;;;;;;;4.50;0.90;;;;;;;;;;5074366;28;20207;-64
2023/05/30 05:41:27;;;;;;;6.22;1.20;;;;;;;;;;5082251;28;20238;-64
2023/05/30 05:43:54;;;;;;;5.35;1.10;;;;;;;;;;5087280;28;20210;-64
2023/05/30 05:46:22;;;;;;;1.43;1.23;;;;;;;;;;5073938;28;20243;-64
2023/05/30 05:48:49;;;;;;;2.70;0.95;;;;;;;;;;5076468;28;20214;-64
2023/05/30 05:51:16;;;;;;;2.17;0.95;;;;;;;;;;5082406;28;20214;-64
2023/05/30 05:53:43;;;;;;;3.15;0.93;;;;;;;;;;5081211;28;20211;-64
2023/05/30 05:56:10;;;;;;;0.60;0.60;;;;;;;;;;5071373;28;20215;-64
2023/05/30 05:58:37;;;;;;;2.08;0.88;;;;;;;;;;5064980;28;20218;-63
2023/05/30 06:01:05;;;;;;;1.83;0.90;;;;;;;;;;5067065;28;20276;-64
2023/05/30 06:03:33;;;;;;;1.38;1.00;;;;;;;;;;5067256;28;20202;-64
2023/05/30 06:06:00;;;;;;;0.43;0.35;;;;;;;;;;5083202;28;20210;-64
2023/05/30 06:08:27;;;;;;;2.05;0.63;;;;;;;;;;5068897;28;20230;-64
2023/05/30 06:10:54;;;;;;;1.95;1.00;;;;;;;;;;5072972;28;20199;-64
2023/05/30 06:13:21;;;;;;;3.50;1.00;;;;;;;;;;5107434;28;20217;-64
2023/05/30 06:15:48;;;;;;;3.58;0.80;;;;;;;;;;5070329;28;20697;-60
2023/05/30 06:18:15;;;;;;;1.70;0.90;;;;;;;;;;5072437;28;20215;-59
2023/05/30 06:20:44;;;;;;;1.67;1.10;;;;;;;;;;5084751;28;20574;-59
2023/05/30 06:23:11;;;;;;;2.53;0.68;;;;;;;;;;5073582;28;20211;-59
2023/05/30 06:25:38;;;;;;;1.20;1.00;;;;;;;;;;5081288;28;20205;-58
2023/05/30 06:28:05;;;;;;;7.72;1.02;;;;;;;;;;5081692;28;20700;-59
2023/05/30 06:30:32;;;;;;;2.45;0.90;;;;;;;;;;5088151;28;20632;-61
2023/05/30 06:32:59;;;;;;;2.25;0.82;;;;;;;;;;5071929;28;20203;-58
2023/05/30 06:35:26;;;;;;;2.80;1.48;;;;;;;;;;5090230;28;20210;-58
2023/05/30 06:37:55;;;;;;;2.67;0.85;;;;;;;;;;5084735;28;20223;-57
2023/05/30 06:40:22;;;;;;;1.95;0.90;;;;;;;;;;5070822;28;20203;-57
2023/05/30 06:42:49;;;;;;;0.82;0.57;;;;;;;;;;5085338;28;20242;-57
2023/05/30 06:45:16;;;;;;;0.80;0.65;;;;;;;;;;5080631;28;20206;-58
2023/05/30 06:47:43;;;;;;;6.85;0.70;;;;;;;;;;5070499;28;20743;-58
2023/05/30 06:50:11;;;;;;;3.20;0.82;;;;;;;;;;5086382;28;20199;-59
2023/05/30 06:52:38;;;;;;;7.00;1.10;;;;;;;;;;5078038;28;21063;-59
2023/05/30 06:55:07;;;;;;;7.47;0.98;;;;;;;;;;5081967;28;20237;-59
2023/05/30 06:57:37;;;;;;;2.47;0.80;;;;;;;;;;5072593;28;20245;-59
2023/05/30 07:00:05;;;;;;;2.35;0.70;;;;;;;;;;5079760;28;20298;-59
2023/05/30 07:02:32;;;;;;;3.33;0.90;;;;;;;;;;5090615;28;20271;-59
2023/05/30 07:05:12;;;;;;;1.70;0.90;;;;;;;;;;5088862;28;20206;-60
2023/05/30 07:07:39;;;;;;;1.35;1.10;;;;;;;;;;5086384;28;20291;-60
2023/05/30 07:10:08;;;;;;;1.02;0.93;;;;;;;;;;5088470;28;20245;-60
2023/05/30 07:12:35;;;;;;;0.60;0.60;;;;;;;;;;5088475;28;20214;-60
2023/05/30 07:15:03;;;;;;;1.38;0.68;;;;;;;;;;5088752;28;20284;-60
2023/05/30 07:17:30;;;;;;;0.77;0.77;;;;;;;;;;5088277;28;20209;-60
2023/05/30 07:19:57;;;;;;;0.57;0.57;;;;;;;;;;5088119;28;20237;-60
2023/05/30 07:22:24;;;;;;;3.55;1.40;;;;;;;;;;5088712;28;20217;-60
2023/05/30 07:24:51;;;;;;;1.65;0.73;;;;;;;;;;5087894;28;20210;-57
2023/05/30 07:27:19;;;;;;;1.58;0.77;;;;;;;;;;5088070;28;20302;-58
2023/05/30 07:29:46;;;;;;;0.82;0.63;;;;;;;;;;5088319;28;20206;-58
2023/05/30 07:32:13;;;;;;;1.48;1.08;;;;;;;;;;5088124;28;20214;-59
2023/05/30 07:34:41;;;;;;;1.02;1.02;;;;;;;;;;5087751;28;20214;-59
2023/05/30 07:37:08;;;;;;;0.70;0.70;;;;;;;;;;5088551;28;20421;-59
2023/05/30 07:39:36;;;;;;;2.35;1.08;;;;;;;;;;5087717;28;20312;-59
2023/05/30 07:42:03;;;;;;;3.17;0.80;;;;;;;;;;5098052;28;20257;-59
2023/05/30 07:44:31;;;;;;;3.80;0.82;;;;;;;;;;5108816;28;20205;-59
2023/05/30 07:46:58;;;;;;;1.65;0.50;;;;;;;;;;5108302;28;20765;-59
2023/05/30 07:49:25;;;;;;;3.63;0.90;;;;;;;;;;5108140;28;20210;-59
2023/05/30 07:51:52;;;;;;;7.15;1.02;;;;;;;;;;5108506;28;20255;-61
2023/05/30 07:54:19;;;;;;;1.15;0.30;;;;;;;;;;5107798;28;20205;-59
2023/05/30 07:56:46;;;;;;;4.18;0.82;;;;;;;;;;5108097;28;20233;-59
2023/05/30 07:59:14;;;;;;;1.63;0.90;;;;;;;;;;5109214;28;20213;-60
2023/05/30 08:01:44;;;;;;;2.28;1.10;;;;;;;;;;5080841;28;20199;-58
2023/05/30 08:04:11;;;;;;;3.60;0.95;;;;;;;;;;5071787;28;20198;-58
2023/05/30 08:06:38;;;;;;;1.30;0.68;;;;;;;;;;5068136;28;20264;-59
2023/05/30 08:09:06;;;;;;;2.00;0.60;;;;;;;;;;5068788;28;20227;-60
2023/05/30 08:11:34;;;;;;;4.53;0.88;;;;;;;;;;5072643;28;20213;-59
2023/05/30 08:14:03;;;;;;;0.88;0.88;;;;;;;;;;5084433;28;20212;-60
2023/05/30 08:16:30;;;;;;;1.60;0.68;;;;;;;;;;5077002;28;20325;-59
2023/05/30 08:18:58;;;;;;;5.88;1.00;;;;;;;;;;5066475;28;20294;-59
2023/05/30 08:21:26;;;;;;;1.08;1.00;;;;;;;;;;5086476;28;20604;-59
2023/05/30 08:23:54;;;;;;;1.67;1.10;;;;;;;;;;5074740;28;20618;-59
2023/05/30 08:26:24;;;;;;;2.13;0.90;;;;;;;;;;5074184;28;20206;-59
2023/05/30 08:28:51;;;;;;;3.10;1.10;;;;;;;;;;5065425;28;20233;-59
2023/05/30 08:31:19;;;;;;;1.38;0.63;;;;;;;;;;5074974;28;20214;-59
2023/05/30 08:33:46;;;;;;;1.23;0.47;;;;;;;;;;5080630;28;20290;-59
2023/05/30 08:36:15;;;;;;;1.17;0.60;;;;;;;;;;5067188;28;20218;-59
2023/05/30 08:38:42;;;;;;;1.95;0.80;;;;;;;;;;5080980;28;20191;-59
2023/05/30 08:41:09;;;;;;;12.23;0.90;;;;;;;;;;5082870;28;20734;-59
2023/05/30 08:43:36;;;;;;;0.95;0.90;;;;;;;;;;5082368;28;20223;-59
2023/05/30 08:46:05;;;;;;;2.58;0.60;;;;;;;;;;5066894;28;20211;-59
2023/05/30 08:48:35;;;;;;;2.58;0.90;;;;;;;;;;5065784;28;20219;-59
2023/05/30 08:51:03;;;;;;;3.35;0.93;;;;;;;;;;5082533;28;20213;-59
2023/05/30 08:53:33;;;;;;;2.83;1.23;;;;;;;;;;5080078;28;20212;-59
2023/05/30 08:56:03;;;;;;;1.08;0.82;;;;;;;;;;5065802;28;20206;-59
2023/05/30 08:58:33;;;;;;;1.13;1.02;;;;;;;;;;5065161;28;20207;-60
2023/05/30 09:01:01;;;;;;;1.20;0.43;;;;;;;;;;5068978;28;20202;-60
2023/05/30 09:03:30;;;;;;;0.70;0.52;;;;;;;;;;5082694;28;20297;-60
2023/05/30 09:05:58;;;;;;;1.13;0.77;;;;;;;;;;5078285;28;20225;-59
2023/05/30 09:08:26;;;;;;;0.90;0.57;;;;;;;;;;5081552;28;20734;-59
2023/05/30 09:10:55;;;;;;;2.83;0.80;;;;;;;;;;5085152;28;21003;-59
2023/05/30 09:13:22;;;;;;;1.55;0.80;;;;;;;;;;5065421;28;20692;-59
2023/05/30 09:15:49;;;;;;;2.00;1.27;;;;;;;;;;5072187;28;20675;-60
2023/05/30 09:18:17;;;;;;;2.03;1.10;;;;;;;;;;5076459;28;20202;-60
2023/05/30 09:20:44;;;;;;;2.05;0.80;;;;;;;;;;5084884;28;20715;-60
2023/05/30 09:23:11;;;;;;;0.60;0.60;;;;;;;;;;5078539;28;20294;-61
2023/05/30 09:25:43;;;;;;;6.45;1.05;;;;;;;;;;5064699;28;20262;-60
2023/05/30 09:28:11;;;;;;;1.48;0.90;;;;;;;;;;5065750;28;20310;-59
2023/05/30 09:30:52;;;;;;;0.82;0.65;;;;;;;;;;5063703;28;20634;-60
2023/05/30 09:33:19;;;;;;;1.65;0.60;;;;;;;;;;5065304;28;20256;-60
2023/05/30 09:35:47;;;;;;;1.58;0.60;;;;;;;;;;5065167;28;20210;-60
2023/05/30 09:38:16;;;;;;;0.68;0.68;;;;;;;;;;5065332;28;20218;-60
2023/05/30 09:40:43;;;;;;;1.67;0.98;;;;;;;;;;5065501;28;20302;-60
2023/05/30 09:43:11;;;;;;;1.95;0.50;;;;;;;;;;5085025;28;20264;-60
2023/05/30 09:45:38;;;;;;;1.75;0.77;;;;;;;;;;5085537;28;20271;-60
2023/05/30 09:48:05;;;;;;;1.75;0.93;;;;;;;;;;5085348;28;20283;-60
2023/05/30 09:50:33;;;;;;;1.95;0.88;;;;;;;;;;5082115;28;20213;-60
2023/05/30 09:53:01;;;;;;;0.90;0.90;;;;;;;;;;5081332;28;20213;-61
2023/05/30 09:55:28;;;;;;;1.98;0.50;;;;;;;;;;5082004;28;20760;-60
2023/05/30 09:57:55;;;;;;;2.30;0.95;;;;;;;;;;5072011;28;20194;-60
2023/05/30 10:00:25;;;;;;;0.93;0.82;;;;;;;;;;5078484;28;20209;-60
2023/05/30 10:02:55;;;;;;;1.00;0.60;;;;;;;;;;5077135;28;20203;-60
2023/05/30 10:05:23;;;;;;;1.58;0.75;;;;;;;;;;5071090;28;20589;-60
2023/05/30 10:07:51;;;;;;;1.05;0.80;;;;;;;;;;5089074;28;20226;-60
2023/05/30 10:10:18;;;;;;;1.58;0.95;;;;;;;;;;5088929;28;20754;-60
2023/05/30 10:12:48;;;;;;;1.08;1.00;;;;;;;;;;5074425;28;20739;-60
2023/05/30 10:15:15;;;;;;;2.20;0.73;;;;;;;;;;5068915;28;20599;-60
2023/05/30 10:17:46;;;;;;;0.70;0.70;;;;;;;;;;5069460;28;20211;-60
2023/05/30 10:20:14;;;;;;;2.20;1.05;;;;;;;;;;5068713;28;20554;-60
2023/05/30 10:22:42;;;;;;;2.30;0.75;;;;;;;;;;5068713;28;20211;-60
2023/05/30 10:25:10;;;;;;;3.85;1.00;;;;;;;;;;5068717;28;20214;-60
2023/05/30 10:27:40;;;;;;;2.25;1.02;;;;;;;;;;5069185;28;20329;-60
2023/05/30 10:30:08;;;;;;;1.63;0.88;;;;;;;;;;5068643;28;20202;-60
2023/05/30 10:32:36;;;;;;;0.52;0.52;;;;;;;;;;5072745;28;20194;-60
2023/05/30 10:35:07;;;;;;;0.82;0.77;;;;;;;;;;5069534;28;20210;-60
2023/05/30 10:37:36;;;;;;;1.15;0.50;;;;;;;;;;5075148;28;20202;-60
2023/05/30 10:40:11;;;;;;;0.80;0.80;;;;;;;;;;5078199;28;20202;-60
2023/05/30 10:42:42;;;;;;;3.03;1.08;;;;;;;;;;5083268;28;20246;-60
2023/05/30 10:45:12;;;;;;;0.75;0.55;;;;;;;;;;5084488;28;20200;-60
2023/05/30 10:47:41;;;;;;;4.32;0.85;;;;;;;;;;5079334;28;20234;-60
2023/05/30 10:50:11;;;;;;;6.57;1.98;;;;;;;;;;5086413;28;20207;-60
2023/05/30 10:52:38;;;;;;;3.63;0.80;;;;;;;;;;5087572;28;20206;-60
2023/05/30 10:55:08;;;;;;;4.68;1.20;;;;;;;;;;5077742;28;20210;-60
2023/05/30 10:57:35;;;;;;;1.58;0.80;;;;;;;;;;5085517;28;20428;-60
2023/05/30 11:00:10;;;;;;;2.38;1.00;;;;;;;;;;5083691;28;20203;-59
2023/05/30 11:02:37;;;;;;;0.90;0.90;;;;;;;;;;5086243;28;20693;-59
2023/05/30 11:05:08;;;;;;;0.60;0.60;;;;;;;;;;5088278;28;20260;-59
2023/05/30 11:07:38;;;;;;;0.55;0.50;;;;;;;;;;5088521;28;20198;-59
2023/05/30 11:10:06;;;;;;;1.52;0.80;;;;;;;;;;5086019;28;20234;-58
2023/05/30 11:12:33;;;;;;;3.38;0.80;;;;;;;;;;5084864;28;20214;-59
2023/05/30 11:15:00;;;;;;;0.85;0.70;;;;;;;;;;5084841;28;20298;-59
2023/05/30 11:17:32;;;;;;;0.73;0.73;;;;;;;;;;5088531;28;20215;-59
2023/05/30 11:20:07;;;;;;;1.23;1.00;;;;;;;;;;5072745;28;20226;-58
2023/05/30 11:22:34;;;;;;;3.78;0.93;;;;;;;;;;5069501;28;20283;-59
2023/05/30 11:25:24;;;;;;;0.95;0.82;;;;;;;;;;5077378;28;20214;-58
2023/05/30 11:28:01;;;;;;;1.45;0.57;;;;;;;;;;5077587;28;20213;-59
2023/05/30 11:30:29;;;;;;;1.73;1.35;;;;;;;;;;5079366;28;20206;-58
2023/05/30 11:32:58;;;;;;;0.77;0.60;;;;;;;;;;5077320;28;20202;-59
2023/05/30 11:35:33;;;;;;;0.82;0.82;;;;;;;;;;5078309;28;20207;-59
2023/05/30 11:38:01;;;;;;;0.70;0.70;;;;;;;;;;5071136;28;20336;-58
2023/05/30 11:40:29;;;;;;;3.30;1.08;;;;;;;;;;5077430;28;20305;-59
2023/05/30 11:42:57;;;;;;;1.85;0.90;;;;;;;;;;5085850;28;20326;-59
2023/05/30 11:45:25;;;;;;;2.40;1.10;;;;;;;;;;5076363;28;20226;-59
2023/05/30 11:47:52;;;;;;;2.92;0.98;;;;;;;;;;5073864;28;20265;-59
2023/05/30 11:50:19;;;;;;;1.45;0.95;;;;;;;;;;5066284;28;20226;-59
2023/05/30 11:53:00;;;;;;;3.47;0.88;;;;;;;;;;5065324;28;20214;-58
2023/05/30 11:55:27;;;;;;;1.25;0.90;;;;;;;;;;5079889;28;20278;-59
2023/05/30 11:57:56;;;;;;;0.63;0.63;;;;;;;;;;5084955;28;20724;-58
2023/05/30 12:00:24;;;;;;;0.98;0.70;;;;;;;;;;5083881;28;20214;-58
2023/05/30 12:02:53;;;;;;;1.40;0.50;;;;;;;;;;5084068;28;20214;-58
2023/05/30 12:05:21;;;;;;;1.05;0.80;;;;;;;;;;5084479;28;20198;-59
2023/05/30 12:07:51;;;;;;;2.95;0.52;;;;;;;;;;5079026;28;20583;-58
2023/05/30 12:10:18;;;;;;;0.75;0.68;;;;;;;;;;5071187;28;20222;-57
2023/05/30 12:12:46;;;;;;;2.60;0.52;;;;;;;;;;5076118;28;20316;-60
2023/05/30 12:15:22;;;;;;;1.45;0.60;;;;;;;;;;5078713;28;20219;-59
2023/05/30 12:17:52;;;;;;;1.45;1.00;;;;;;;;;;5076169;28;20700;-59
2023/05/30 12:20:21;;;;;;;1.30;0.70;;;;;;;;;;5071664;28;20329;-59
2023/05/30 12:22:49;;;;;;;6.80;0.90;;;;;;;;;;5078990;28;20206;-62
2023/05/30 12:25:16;;;;;;;1.10;0.90;;;;;;;;;;5074147;28;20657;-58
2023/05/30 12:27:43;;;;;;;1.70;0.82;;;;;;;;;;5086426;28;20210;-57
2023/05/30 12:30:15;;;;;;;1.30;0.90;;;;;;;;;;5074048;28;20223;-58
2023/05/30 12:32:43;;;;;;;3.65;0.70;;;;;;;;;;5067576;28;20211;-58
2023/05/30 12:35:11;;;;;;;1.48;0.88;;;;;;;;;;5075357;28;20202;-58
2023/05/30 12:37:38;;;;;;;4.35;1.13;;;;;;;;;;5078074;28;20595;-57
2023/05/30 12:40:06;;;;;;;2.35;0.52;;;;;;;;;;5073446;28;20620;-57
2023/05/30 12:42:36;;;;;;;2.33;0.68;;;;;;;;;;5085686;28;20249;-63
2023/05/30 12:45:07;;;;;;;3.17;0.98;;;;;;;;;;5085503;28;20738;-59
2023/05/30 12:47:36;;;;;;;45.40;15.52;;;;;;;;;;5076531;28;20228;-60
2023/05/30 12:50:03;;;;;;;2.85;0.95;;;;;;;;;;5073709;28;20227;-60
2023/05/30 12:52:30;;;;;;;1.63;0.82;;;;;;;;;;5081964;28;20198;-61
2023/05/30 12:54:58;;;;;;;1.38;0.90;;;;;;;;;;5067458;28;20210;-61
2023/05/30 12:57:25;;;;;;;0.55;0.55;;;;;;;;;;5080391;28;20194;-61
2023/05/30 12:59:53;;;;;;;4.22;0.75;;;;;;;;;;5068734;28;20210;-61
2023/05/30 13:02:24;;;;;;;3.80;1.13;;;;;;;;;;5074653;28;20648;-61
2023/05/30 13:04:52;;;;;;;2.45;1.17;;;;;;;;;;5082396;28;20917;-61
2023/05/30 13:07:20;;;;;;;1.85;0.70;;;;;;;;;;5073474;28;20199;-61
2023/05/30 13:09:47;;;;;;;2.95;0.60;;;;;;;;;;5070490;28;20222;-61
2023/05/30 13:12:14;;;;;;;1.42;0.98;;;;;;;;;;5079371;28;20299;-60
2023/05/30 13:14:43;;;;;;;0.28;0.28;;;;;;;;;;5068309;28;20211;-61
2023/05/30 13:17:10;;;;;;;0.85;0.65;;;;;;;;;;5084436;28;20206;-61
2023/05/30 13:19:37;;;;;;;4.63;0.90;;;;;;;;;;5066797;28;20211;-61
2023/05/30 13:22:07;;;;;;;2.75;0.60;;;;;;;;;;5066969;28;20230;-61
2023/05/30 13:24:34;;;;;;;2.85;1.20;;;;;;;;;;5066245;28;20222;-61
2023/05/30 13:27:01;;;;;;;1.80;0.80;;;;;;;;;;5066518;28;20728;-61
2023/05/30 13:29:28;;;;;;;0.38;0.38;;;;;;;;;;5066279;28;20234;-61
2023/05/30 13:31:55;;;;;;;0.80;0.43;;;;;;;;;;5068604;28;20202;-60
2023/05/30 13:34:22;;;;;;;0.13;0.13;;;;;;;;;;5066207;28;20215;-60
2023/05/30 13:36:49;;;;;;;2.72;1.15;;;;;;;;;;5066542;28;20207;-60
2023/05/30 13:39:18;;;;;;;0.80;0.77;;;;;;;;;;5065922;28;20203;-60
2023/05/30 13:41:45;;;;;;;2.22;0.90;;;;;;;;;;5071865;28;20242;-60
2023/05/30 13:44:13;;;;;;;2.45;0.52;;;;;;;;;;5075271;28;20756;-60
2023/05/30 13:46:40;;;;;;;4.43;0.70;;;;;;;;;;5077549;28;20633;-60
2023/05/30 13:49:07;;;;;;;0.47;0.47;;;;;;;;;;5075705;28;20316;-59
2023/05/30 13:51:35;;;;;;;0.68;0.68;;;;;;;;;;5084275;28;20213;-60
2023/05/30 13:54:03;;;;;;;0.65;0.65;;;;;;;;;;5086129;28;20214;-59
2023/05/30 13:56:31;;;;;;;0.80;0.80;;;;;;;;;;5086688;28;20298;-60
2023/05/30 13:58:59;;;;;;;2.83;0.80;;;;;;;;;;5080989;28;20297;-60
2023/05/30 14:01:26;;;;;;;0.90;0.70;;;;;;;;;;5085572;28;20206;-60
2023/05/30 14:03:53;;;;;;;0.73;0.73;;;;;;;;;;5084404;28;20210;-59
2023/05/30 14:06:20;;;;;;;0.98;0.98;;;;;;;;;;5084927;28;20210;-59
2023/05/30 14:08:47;;;;;;;0.80;0.80;;;;;;;;;;5084200;28;20703;-59
2023/05/30 14:11:14;;;;;;;2.03;0.90;;;;;;;;;;5085929;28;20205;-59
2023/05/30 14:13:43;;;;;;;0.80;0.50;;;;;;;;;;5083471;28;20209;-60
2023/05/30 14:16:10;;;;;;;1.58;0.80;;;;;;;;;;5075576;28;20211;-60
2023/05/30 14:18:37;;;;;;;2.53;0.70;;;;;;;;;;5076962;28;20202;-60
2023/05/30 14:21:04;;;;;;;0.52;0.52;;;;;;;;;;5079204;28;20241;-61
2023/05/30 14:23:32;;;;;;;0.68;0.50;;;;;;;;;;5074341;28;20207;-59
2023/05/30 14:26:00;;;;;;;0.60;0.60;;;;;;;;;;5076037;28;20206;-58
2023/05/30 14:28:27;;;;;;;2.38;0.45;;;;;;;;;;5084482;28;20260;-59
2023/05/30 14:30:55;;;;;;;0.82;0.63;;;;;;;;;;5084236;28;20230;-59
2023/05/30 14:33:22;;;;;;;1.48;0.68;;;;;;;;;;5085483;28;20586;-59
2023/05/30 14:35:49;;;;;;;1.55;0.85;;;;;;;;;;5085536;28;20230;-58
2023/05/30 14:38:16;;;;;;;0.80;0.80;;;;;;;;;;5085059;28;20210;-59
2023/05/30 14:40:43;;;;;;;1.23;0.63;;;;;;;;;;5085077;28;20296;-59
2023/05/30 14:43:10;;;;;;;1.95;1.13;;;;;;;;;;5085228;28;20742;-58
2023/05/30 14:45:37;;;;;;;0.60;0.60;;;;;;;;;;5086354;28;20210;-59
2023/05/30 14:48:08;;;;;;;1.77;1.15;;;;;;;;;;5089076;28;20613;-59